createdAt,value
2022-11-26T00:00:03.597Z,1015.64
2022-11-26T00:01:03.602Z,1015.65
2022-11-26T00:02:02.745Z,1015.69
2022-11-26T00:03:02.905Z,1015.69
2022-11-26T00:04:02.408Z,1015.70
2022-11-26T00:05:02.805Z,1015.73
2022-11-26T00:06:02.646Z,1015.73
2022-11-26T00:07:03.562Z,1015.76
2022-11-26T00:08:03.596Z,1015.67
2022-11-26T00:09:03.544Z,1015.77
2022-11-26T00:10:03.531Z,1015.76
2022-11-26T00:11:02.987Z,1015.73
2022-11-26T00:12:02.551Z,1015.78
2022-11-26T00:13:02.970Z,1015.83
2022-11-26T00:14:03.062Z,1015.77
2022-11-26T00:15:02.989Z,1015.78
2022-11-26T00:16:02.955Z,1015.77
2022-11-26T00:17:03.133Z,1015.84
2022-11-26T00:18:02.832Z,1015.83
2022-11-26T00:19:02.601Z,1015.81
2022-11-26T00:20:02.841Z,1015.87
2022-11-26T00:21:02.631Z,1015.92
2022-11-26T00:22:02.639Z,1015.91
2022-11-26T00:23:02.652Z,1015.98
2022-11-26T00:24:02.589Z,1015.98
2022-11-26T00:25:02.713Z,1016.00
2022-11-26T00:26:02.642Z,1016.00
2022-11-26T00:27:02.757Z,1016.03
2022-11-26T00:28:02.341Z,1015.95
2022-11-26T00:29:02.676Z,1016.03
2022-11-26T00:30:02.792Z,1016.04
2022-11-26T00:31:02.349Z,1016.05
2022-11-26T00:32:03.023Z,1016.03
2022-11-26T00:33:03.316Z,1016.04
2022-11-26T00:34:03.221Z,1016.00
2022-11-26T00:35:03.022Z,1016.04
2022-11-26T00:36:02.851Z,1016.03
2022-11-26T00:37:03.056Z,1016.02
2022-11-26T00:38:03.173Z,1016.11
2022-11-26T00:39:03.335Z,1016.18
2022-11-26T00:40:03.519Z,1016.17
2022-11-26T00:41:03.214Z,1016.19
2022-11-26T00:42:03.560Z,1016.21
2022-11-26T00:43:03.119Z,1016.21
2022-11-26T00:44:03.021Z,1016.22
2022-11-26T00:45:02.724Z,1016.24
2022-11-26T00:46:03.402Z,1016.22
2022-11-26T00:47:03.254Z,1016.22
2022-11-26T00:48:03.133Z,1016.26
2022-11-26T00:49:03.493Z,1016.29
2022-11-26T00:50:03.108Z,1016.32
2022-11-26T00:51:03.366Z,1016.32
2022-11-26T00:52:03.232Z,1016.29
2022-11-26T00:53:03.494Z,1016.30
2022-11-26T00:54:03.194Z,1016.30
2022-11-26T00:55:03.548Z,1016.34
2022-11-26T00:56:03.631Z,1016.34
2022-11-26T00:57:02.912Z,1016.34
2022-11-26T00:58:02.890Z,1016.36
2022-11-26T00:59:02.797Z,1016.33
2022-11-26T01:00:02.304Z,1016.28
2022-11-26T01:01:02.885Z,1016.30
2022-11-26T01:02:03.616Z,1016.40
2022-11-26T01:03:03.679Z,1016.34
2022-11-26T01:04:03.400Z,1016.36
2022-11-26T01:05:03.523Z,1016.35
2022-11-26T01:06:03.087Z,1016.46
2022-11-26T01:07:02.911Z,1016.44
2022-11-26T01:08:02.456Z,1016.46
2022-11-26T01:09:02.884Z,1016.44
2022-11-26T01:10:03.065Z,1016.46
2022-11-26T01:11:03.063Z,1016.48
2022-11-26T01:12:02.322Z,1016.51
2022-11-26T01:13:02.342Z,1016.49
2022-11-26T01:14:02.169Z,1016.49
2022-11-26T01:15:02.646Z,1016.50
2022-11-26T01:16:02.170Z,1016.53
2022-11-26T01:17:02.988Z,1016.53
2022-11-26T01:18:03.038Z,1016.56
2022-11-26T01:19:02.443Z,1016.55
2022-11-26T01:20:02.591Z,1016.59
2022-11-26T01:21:03.109Z,1016.61
2022-11-26T01:22:02.398Z,1016.62
2022-11-26T01:23:02.522Z,1016.64
2022-11-26T01:24:02.099Z,1016.68
2022-11-26T01:25:02.499Z,1016.67
2022-11-26T01:26:06.376Z,1016.67
2022-11-26T01:27:03.013Z,1016.69
2022-11-26T01:28:02.746Z,1016.70
2022-11-26T01:29:03.084Z,1016.70
2022-11-26T01:30:02.798Z,1016.75
2022-11-26T01:31:02.778Z,1016.72
2022-11-26T01:32:02.459Z,1016.71
2022-11-26T01:33:02.542Z,1016.72
2022-11-26T01:34:02.336Z,1016.79
2022-11-26T01:35:02.385Z,1016.76
2022-11-26T01:36:02.178Z,1016.80
2022-11-26T01:37:02.846Z,1016.77
2022-11-26T01:38:02.727Z,1016.83
2022-11-26T01:39:02.767Z,1016.83
2022-11-26T01:40:02.869Z,1016.88
2022-11-26T01:41:02.400Z,1016.85
2022-11-26T01:42:02.725Z,1016.81
2022-11-26T01:43:02.544Z,1016.82
2022-11-26T01:44:02.972Z,1016.86
2022-11-26T01:45:03.124Z,1016.90
2022-11-26T01:46:02.794Z,1016.82
2022-11-26T01:47:03.374Z,1016.85
2022-11-26T01:48:03.336Z,1016.89
2022-11-26T01:49:03.540Z,1016.89
2022-11-26T01:50:03.197Z,1016.88
2022-11-26T01:51:02.985Z,1016.83
2022-11-26T01:52:02.533Z,1016.89
2022-11-26T01:53:02.631Z,1016.90
2022-11-26T01:54:02.623Z,1016.92
2022-11-26T01:55:02.571Z,1016.90
2022-11-26T01:56:02.193Z,1016.93
2022-11-26T01:57:02.510Z,1016.92
2022-11-26T01:58:02.884Z,1016.91
2022-11-26T01:59:02.564Z,1016.97
2022-11-26T02:00:02.347Z,1016.94
2022-11-26T02:01:02.306Z,1016.98
2022-11-26T02:02:02.898Z,1016.93
2022-11-26T02:03:02.584Z,1016.96
2022-11-26T02:04:03.100Z,1016.96
2022-11-26T02:05:02.899Z,1016.93
2022-11-26T02:06:03.166Z,1016.95
2022-11-26T02:07:03.327Z,1016.96
2022-11-26T02:08:02.991Z,1016.93
2022-11-26T02:09:03.469Z,1016.94
2022-11-26T02:10:03.383Z,1016.92
2022-11-26T02:11:02.968Z,1016.95
2022-11-26T02:12:03.575Z,1016.96
2022-11-26T02:13:02.987Z,1016.96
2022-11-26T02:14:03.521Z,1016.96
2022-11-26T02:15:03.245Z,1017.00
2022-11-26T02:16:03.656Z,1016.99
2022-11-26T02:17:02.819Z,1016.97
2022-11-26T02:18:02.649Z,1016.95
2022-11-26T02:19:02.571Z,1017.00
2022-11-26T02:20:03.008Z,1017.05
2022-11-26T02:21:03.010Z,1017.00
2022-11-26T02:22:03.249Z,1016.98
2022-11-26T02:23:02.899Z,1017.04
2022-11-26T02:24:02.831Z,1017.11
2022-11-26T02:25:03.003Z,1017.05
2022-11-26T02:26:02.840Z,1017.01
2022-11-26T02:27:03.209Z,1017.09
2022-11-26T02:28:02.983Z,1017.17
2022-11-26T02:29:03.115Z,1017.15
2022-11-26T02:30:03.321Z,1017.17
2022-11-26T02:31:03.147Z,1017.13
2022-11-26T02:32:02.720Z,1017.10
2022-11-26T02:33:02.249Z,1017.16
2022-11-26T02:34:02.224Z,1017.11
2022-11-26T02:35:02.640Z,1017.09
2022-11-26T02:36:02.654Z,1017.08
2022-11-26T02:37:02.711Z,1017.08
2022-11-26T02:38:02.566Z,1017.08
2022-11-26T02:39:02.846Z,1017.03
2022-11-26T02:40:02.406Z,1017.01
2022-11-26T02:41:02.395Z,1017.00
2022-11-26T02:42:02.048Z,1017.12
2022-11-26T02:43:02.502Z,1017.04
2022-11-26T02:44:02.510Z,1017.03
2022-11-26T02:45:02.320Z,1017.08
2022-11-26T02:46:02.110Z,1017.05
2022-11-26T02:47:02.652Z,1017.02
2022-11-26T02:48:02.689Z,1017.06
2022-11-26T02:49:02.603Z,1017.00
2022-11-26T02:50:02.894Z,1017.05
2022-11-26T02:51:02.521Z,1017.07
2022-11-26T02:52:02.041Z,1017.07
2022-11-26T02:53:02.476Z,1017.02
2022-11-26T02:54:02.281Z,1017.05
2022-11-26T02:55:02.632Z,1017.01
2022-11-26T02:56:02.319Z,1017.05
2022-11-26T02:57:02.238Z,1016.98
2022-11-26T02:58:02.233Z,1017.00
2022-11-26T02:59:02.225Z,1017.02
2022-11-26T03:00:02.736Z,1016.99
2022-11-26T03:01:02.910Z,1016.98
2022-11-26T03:02:01.876Z,1017.03
2022-11-26T03:03:01.778Z,1017.01
2022-11-26T03:04:01.556Z,1016.95
2022-11-26T03:05:02.111Z,1016.96
2022-11-26T03:06:02.026Z,1016.93
2022-11-26T03:07:02.097Z,1016.93
2022-11-26T03:08:01.981Z,1016.92
2022-11-26T03:09:01.799Z,1016.92
2022-11-26T03:10:02.305Z,1016.94
2022-11-26T03:11:02.370Z,1016.97
2022-11-26T03:12:02.248Z,1017.00
2022-11-26T03:13:02.166Z,1017.00
2022-11-26T03:14:02.441Z,1016.94
2022-11-26T03:15:02.125Z,1017.00
2022-11-26T03:16:02.601Z,1017.01
2022-11-26T03:17:01.667Z,1017.02
2022-11-26T03:18:02.226Z,1016.96
2022-11-26T03:19:02.133Z,1016.98
2022-11-26T03:20:02.187Z,1016.98
2022-11-26T03:21:01.587Z,1017.01
2022-11-26T03:22:02.006Z,1016.98
2022-11-26T03:23:02.034Z,1016.97
2022-11-26T03:24:02.048Z,1016.94
2022-11-26T03:25:01.933Z,1017.01
2022-11-26T03:26:02.436Z,1017.00
2022-11-26T03:27:02.606Z,1016.97
2022-11-26T03:28:02.451Z,1016.94
2022-11-26T03:29:02.148Z,1016.98
2022-11-26T03:30:02.069Z,1016.96
2022-11-26T03:31:02.424Z,1016.95
2022-11-26T03:32:02.142Z,1016.99
2022-11-26T03:33:02.255Z,1017.00
2022-11-26T03:34:01.901Z,1017.03
2022-11-26T03:35:01.860Z,1016.98
2022-11-26T03:36:01.662Z,1017.01
2022-11-26T03:37:02.131Z,1017.07
2022-11-26T03:38:02.307Z,1017.07
2022-11-26T03:39:02.040Z,1017.05
2022-11-26T03:40:02.297Z,1017.06
2022-11-26T03:41:02.661Z,1017.08
2022-11-26T03:42:02.155Z,1017.05
2022-11-26T03:43:02.025Z,1017.05
2022-11-26T03:44:02.258Z,1017.06
2022-11-26T03:45:02.308Z,1017.02
2022-11-26T03:46:02.058Z,1017.01
2022-11-26T03:47:01.674Z,1017.05
2022-11-26T03:48:01.401Z,1017.08
2022-11-26T03:49:01.813Z,1017.03
2022-11-26T03:50:01.542Z,1017.07
2022-11-26T03:51:01.480Z,1017.04
2022-11-26T03:52:01.961Z,1017.07
2022-11-26T03:53:01.906Z,1017.06
2022-11-26T03:54:02.170Z,1017.10
2022-11-26T03:55:01.788Z,1017.15
2022-11-26T03:56:01.905Z,1017.14
2022-11-26T03:57:01.997Z,1017.17
2022-11-26T03:58:01.965Z,1017.21
2022-11-26T03:59:01.824Z,1017.15
2022-11-26T04:00:01.986Z,1017.14
2022-11-26T04:01:02.241Z,1017.16
2022-11-26T04:02:02.661Z,1017.20
2022-11-26T04:03:02.890Z,1017.28
2022-11-26T04:04:02.491Z,1017.21
2022-11-26T04:05:02.352Z,1017.21
2022-11-26T04:06:02.254Z,1017.20
2022-11-26T04:07:02.435Z,1017.21
2022-11-26T04:08:02.623Z,1017.30
2022-11-26T04:09:02.655Z,1017.24
2022-11-26T04:10:02.443Z,1017.26
2022-11-26T04:11:02.945Z,1017.34
2022-11-26T04:12:02.737Z,1017.29
2022-11-26T04:13:02.501Z,1017.32
2022-11-26T04:14:02.477Z,1017.35
2022-11-26T04:15:02.509Z,1017.42
2022-11-26T04:16:02.995Z,1017.44
2022-11-26T04:17:02.847Z,1017.43
2022-11-26T04:18:02.877Z,1017.49
2022-11-26T04:19:02.585Z,1017.58
2022-11-26T04:20:02.774Z,1017.54
2022-11-26T04:21:03.104Z,1017.59
2022-11-26T04:22:02.406Z,1017.57
2022-11-26T04:23:02.251Z,1017.62
2022-11-26T04:24:02.124Z,1017.57
2022-11-26T04:25:02.145Z,1017.67
2022-11-26T04:26:02.661Z,1017.63
2022-11-26T04:27:03.157Z,1017.64
2022-11-26T04:28:03.030Z,1017.71
2022-11-26T04:29:02.861Z,1017.74
2022-11-26T04:30:03.152Z,1017.77
2022-11-26T04:31:02.675Z,1017.80
2022-11-26T04:32:02.371Z,1017.79
2022-11-26T04:33:01.982Z,1017.83
2022-11-26T04:34:02.270Z,1017.85
2022-11-26T04:35:02.087Z,1017.85
2022-11-26T04:36:02.223Z,1017.84
2022-11-26T04:37:02.681Z,1017.82
2022-11-26T04:38:02.555Z,1017.86
2022-11-26T04:39:02.950Z,1017.84
2022-11-26T04:40:02.497Z,1017.86
2022-11-26T04:41:02.396Z,1017.83
2022-11-26T04:42:02.398Z,1017.88
2022-11-26T04:43:02.213Z,1017.83
2022-11-26T04:44:01.913Z,1017.85
2022-11-26T04:45:02.002Z,1017.88
2022-11-26T04:46:02.125Z,1017.88
2022-11-26T04:47:02.413Z,1017.84
2022-11-26T04:48:02.402Z,1017.91
2022-11-26T04:49:02.297Z,1017.87
2022-11-26T04:50:02.120Z,1017.94
2022-11-26T04:51:02.358Z,1018.03
2022-11-26T04:52:02.702Z,1018.01
2022-11-26T04:53:02.592Z,1018.04
2022-11-26T04:54:03.758Z,1018.04
2022-11-26T04:55:02.548Z,1018.07
2022-11-26T04:56:02.845Z,1018.12
2022-11-26T04:57:01.941Z,1018.09
2022-11-26T04:58:01.849Z,1018.11
2022-11-26T04:59:01.750Z,1018.13
2022-11-26T05:00:02.278Z,1018.22
2022-11-26T05:01:02.289Z,1018.24
2022-11-26T05:02:02.945Z,1018.16
2022-11-26T05:03:02.784Z,1018.20
2022-11-26T05:04:03.370Z,1018.21
2022-11-26T05:05:03.010Z,1018.19
2022-11-26T05:06:03.044Z,1018.27
2022-11-26T05:07:02.528Z,1018.23
2022-11-26T05:08:02.933Z,1018.23
2022-11-26T05:09:02.598Z,1018.23
2022-11-26T05:10:02.387Z,1018.23
2022-11-26T05:11:02.835Z,1018.21
2022-11-26T05:12:02.927Z,1018.30
2022-11-26T05:13:03.108Z,1018.24
2022-11-26T05:14:03.120Z,1018.27
2022-11-26T05:15:03.289Z,1018.28
2022-11-26T05:16:02.886Z,1018.27
2022-11-26T05:17:02.561Z,1018.33
2022-11-26T05:18:02.870Z,1018.30
2022-11-26T05:19:02.391Z,1018.34
2022-11-26T05:20:02.561Z,1018.35
2022-11-26T05:21:02.928Z,1018.41
2022-11-26T05:22:03.426Z,1018.43
2022-11-26T05:23:03.371Z,1018.50
2022-11-26T05:24:03.290Z,1018.54
2022-11-26T05:25:03.357Z,1018.51
2022-11-26T05:26:03.334Z,1018.53
2022-11-26T05:27:02.891Z,1018.50
2022-11-26T05:28:02.509Z,1018.48
2022-11-26T05:29:02.955Z,1018.51
2022-11-26T05:30:02.464Z,1018.55
2022-11-26T05:31:02.869Z,1018.57
2022-11-26T05:32:03.080Z,1018.56
2022-11-26T05:33:02.753Z,1018.58
2022-11-26T05:34:02.560Z,1018.53
2022-11-26T05:35:02.591Z,1018.54
2022-11-26T05:36:02.963Z,1018.57
2022-11-26T05:37:03.382Z,1018.58
2022-11-26T05:38:02.903Z,1018.57
2022-11-26T05:39:02.876Z,1018.60
2022-11-26T05:40:02.789Z,1018.54
2022-11-26T05:41:03.262Z,1018.58
2022-11-26T05:42:07.686Z,1018.61
2022-11-26T05:43:02.259Z,1018.67
2022-11-26T05:44:02.080Z,1018.59
2022-11-26T05:45:02.119Z,1018.61
2022-11-26T05:46:01.920Z,1018.62
2022-11-26T05:47:03.081Z,1018.67
2022-11-26T05:48:02.614Z,1018.60
2022-11-26T05:49:02.632Z,1018.67
2022-11-26T05:50:03.084Z,1018.69
2022-11-26T05:51:02.963Z,1018.70
2022-11-26T05:52:02.101Z,1018.68
2022-11-26T05:53:02.663Z,1018.67
2022-11-26T05:54:02.253Z,1018.69
2022-11-26T05:55:02.080Z,1018.63
2022-11-26T05:56:02.109Z,1018.68
2022-11-26T05:57:02.895Z,1018.74
2022-11-26T05:58:02.689Z,1018.70
2022-11-26T05:59:02.435Z,1018.72
2022-11-26T06:00:02.667Z,1018.74
2022-11-26T06:01:02.936Z,1018.73
2022-11-26T06:02:02.788Z,1018.69
2022-11-26T06:03:03.017Z,1018.70
2022-11-26T06:04:03.215Z,1018.81
2022-11-26T06:05:03.145Z,1018.78
2022-11-26T06:06:02.986Z,1018.75
2022-11-26T06:07:02.754Z,1018.80
2022-11-26T06:08:03.044Z,1018.76
2022-11-26T06:09:03.214Z,1018.78
2022-11-26T06:10:02.712Z,1018.77
2022-11-26T06:11:02.936Z,1018.73
2022-11-26T06:12:02.820Z,1018.77
2022-11-26T06:13:02.975Z,1018.81
2022-11-26T06:14:02.856Z,1018.84
2022-11-26T06:15:03.071Z,1018.89
2022-11-26T06:16:03.368Z,1018.89
2022-11-26T06:17:02.825Z,1018.90
2022-11-26T06:18:03.403Z,1018.88
2022-11-26T06:19:02.902Z,1018.89
2022-11-26T06:20:03.424Z,1018.89
2022-11-26T06:21:02.815Z,1018.95
2022-11-26T06:22:02.570Z,1018.90
2022-11-26T06:23:03.029Z,1018.95
2022-11-26T06:24:02.650Z,1018.91
2022-11-26T06:25:02.913Z,1018.96
2022-11-26T06:26:02.678Z,1018.97
2022-11-26T06:27:03.021Z,1018.97
2022-11-26T06:28:02.636Z,1018.95
2022-11-26T06:29:02.505Z,1018.90
2022-11-26T06:30:02.766Z,1018.89
2022-11-26T06:31:02.467Z,1018.89
2022-11-26T06:32:02.002Z,1018.88
2022-11-26T06:33:02.252Z,1018.89
2022-11-26T06:34:02.441Z,1018.92
2022-11-26T06:35:02.021Z,1018.96
2022-11-26T06:36:02.105Z,1018.95
2022-11-26T06:37:02.429Z,1018.97
2022-11-26T06:38:01.825Z,1018.96
2022-11-26T06:39:02.005Z,1018.96
2022-11-26T06:40:02.447Z,1019.03
2022-11-26T06:41:01.903Z,1019.02
2022-11-26T06:42:02.611Z,1018.99
2022-11-26T06:43:02.848Z,1019.04
2022-11-26T06:44:02.824Z,1019.00
2022-11-26T06:45:02.611Z,1018.97
2022-11-26T06:46:02.557Z,1018.94
2022-11-26T06:47:02.107Z,1019.02
2022-11-26T06:48:01.955Z,1019.01
2022-11-26T06:49:02.178Z,1019.03
2022-11-26T06:50:05.214Z,1019.02
2022-11-26T06:51:01.961Z,1019.02
2022-11-26T06:52:02.435Z,1019.07
2022-11-26T06:53:02.262Z,1019.09
2022-11-26T06:54:02.396Z,1019.09
2022-11-26T06:55:02.369Z,1019.08
2022-11-26T06:56:02.402Z,1019.13
2022-11-26T06:57:01.909Z,1019.08
2022-11-26T06:58:01.833Z,1019.09
2022-11-26T06:59:02.303Z,1019.12
2022-11-26T07:00:02.056Z,1019.14
2022-11-26T07:01:02.086Z,1019.09
2022-11-26T07:02:02.609Z,1019.12
2022-11-26T07:03:02.374Z,1019.11
2022-11-26T07:04:02.345Z,1019.11
2022-11-26T07:05:02.640Z,1019.12
2022-11-26T07:06:02.264Z,1019.16
2022-11-26T07:07:02.865Z,1019.11
2022-11-26T07:08:02.656Z,1019.13
2022-11-26T07:09:02.701Z,1019.12
2022-11-26T07:10:02.611Z,1019.16
2022-11-26T07:11:03.195Z,1019.16
2022-11-26T07:12:02.537Z,1019.17
2022-11-26T07:13:02.345Z,1019.24
2022-11-26T07:14:02.200Z,1019.19
2022-11-26T07:15:02.351Z,1019.27
2022-11-26T07:16:02.786Z,1019.22
2022-11-26T07:17:02.219Z,1019.24
2022-11-26T07:18:02.153Z,1019.24
2022-11-26T07:19:03.186Z,1019.23
2022-11-26T07:20:01.785Z,1019.25
2022-11-26T07:21:02.158Z,1019.27
2022-11-26T07:22:02.060Z,1019.26
2022-11-26T07:23:02.383Z,1019.29
2022-11-26T07:24:02.660Z,1019.32
2022-11-26T07:25:02.005Z,1019.34
2022-11-26T07:26:02.352Z,1019.36
2022-11-26T07:27:02.850Z,1019.39
2022-11-26T07:28:02.488Z,1019.40
2022-11-26T07:29:02.285Z,1019.40
2022-11-26T07:30:02.395Z,1019.50
2022-11-26T07:31:02.400Z,1019.51
2022-11-26T07:32:02.749Z,1019.52
2022-11-26T07:33:02.754Z,1019.56
2022-11-26T07:34:02.672Z,1019.55
2022-11-26T07:35:02.848Z,1019.65
2022-11-26T07:36:02.458Z,1019.61
2022-11-26T07:37:03.105Z,1019.69
2022-11-26T07:38:03.204Z,1019.74
2022-11-26T07:39:02.878Z,1019.69
2022-11-26T07:40:02.795Z,1019.76
2022-11-26T07:41:02.582Z,1019.81
2022-11-26T07:42:01.848Z,1019.84
2022-11-26T07:43:01.754Z,1019.78
2022-11-26T07:44:02.333Z,1019.72
2022-11-26T07:45:02.215Z,1019.73
2022-11-26T07:46:02.124Z,1019.71
2022-11-26T07:47:02.600Z,1019.69
2022-11-26T07:48:02.523Z,1019.73
2022-11-26T07:49:02.442Z,1019.77
2022-11-26T07:50:02.171Z,1019.80
2022-11-26T07:51:02.751Z,1019.82
2022-11-26T07:52:02.256Z,1019.81
2022-11-26T07:53:02.344Z,1019.85
2022-11-26T07:54:01.796Z,1019.82
2022-11-26T07:55:02.311Z,1019.87
2022-11-26T07:56:01.720Z,1019.92
2022-11-26T07:57:02.862Z,1019.89
2022-11-26T07:58:02.558Z,1019.93
2022-11-26T07:59:02.371Z,1019.88
2022-11-26T08:00:02.441Z,1019.91
2022-11-26T08:01:02.474Z,1019.87
2022-11-26T08:02:02.722Z,1019.93
2022-11-26T08:03:03.249Z,1019.93
2022-11-26T08:04:03.007Z,1019.91
2022-11-26T08:05:02.917Z,1020.02
2022-11-26T08:06:02.857Z,1019.93
2022-11-26T08:07:03.173Z,1019.93
2022-11-26T08:08:02.718Z,1019.92
2022-11-26T08:09:03.238Z,1019.88
2022-11-26T08:10:02.892Z,1019.83
2022-11-26T08:11:02.651Z,1019.82
2022-11-26T08:12:02.803Z,1019.82
2022-11-26T08:13:02.201Z,1019.80
2022-11-26T08:14:02.552Z,1019.80
2022-11-26T08:15:02.465Z,1019.83
2022-11-26T08:16:02.579Z,1019.82
2022-11-26T08:17:02.555Z,1019.83
2022-11-26T08:18:02.666Z,1019.83
2022-11-26T08:19:02.555Z,1019.89
2022-11-26T08:20:02.458Z,1019.85
2022-11-26T08:21:02.691Z,1019.84
2022-11-26T08:22:03.165Z,1019.87
2022-11-26T08:23:03.037Z,1019.79
2022-11-26T08:24:03.114Z,1019.79
2022-11-26T08:25:02.940Z,1019.85
2022-11-26T08:26:22.773Z,1019.86
2022-11-26T08:27:02.760Z,1019.81
2022-11-26T08:28:02.694Z,1019.90
2022-11-26T08:29:02.937Z,1019.86
2022-11-26T08:30:02.434Z,1019.86
2022-11-26T08:31:02.416Z,1019.82
2022-11-26T08:32:03.125Z,1019.83
2022-11-26T08:33:02.835Z,1019.76
2022-11-26T08:34:02.718Z,1019.77
2022-11-26T08:35:02.784Z,1019.77
2022-11-26T08:36:07.645Z,1019.76
2022-11-26T08:37:02.694Z,1019.67
2022-11-26T08:38:02.973Z,1019.67
2022-11-26T08:39:02.963Z,1019.68
2022-11-26T08:40:02.921Z,1019.66
2022-11-26T08:41:03.022Z,1019.63
2022-11-26T08:42:02.216Z,1019.63
2022-11-26T08:43:02.261Z,1019.60
2022-11-26T08:44:07.452Z,1019.59
2022-11-26T08:45:02.650Z,1019.63
2022-11-26T08:46:02.455Z,1019.60
2022-11-26T08:47:02.195Z,1019.64
2022-11-26T08:48:02.434Z,1019.62
2022-11-26T08:49:02.366Z,1019.63
2022-11-26T08:50:02.150Z,1019.66
2022-11-26T08:51:02.810Z,1019.65
2022-11-26T08:52:03.055Z,1019.67
2022-11-26T08:53:03.367Z,1019.67
2022-11-26T08:54:03.100Z,1019.67
2022-11-26T08:55:03.281Z,1019.74
2022-11-26T08:56:03.073Z,1019.74
2022-11-26T08:57:02.810Z,1019.79
2022-11-26T08:58:03.424Z,1019.78
2022-11-26T08:59:03.270Z,1019.78
2022-11-26T09:00:02.994Z,1019.85
2022-11-26T09:01:02.891Z,1019.89
2022-11-26T09:02:02.454Z,1019.89
2022-11-26T09:03:02.450Z,1019.92
2022-11-26T09:04:02.430Z,1019.90
2022-11-26T09:05:02.812Z,1019.93
2022-11-26T09:06:02.840Z,1019.96
2022-11-26T09:07:02.021Z,1019.94
2022-11-26T09:08:02.497Z,1019.92
2022-11-26T09:09:02.231Z,1019.84
2022-11-26T09:10:02.000Z,1019.87
2022-11-26T09:11:01.923Z,1019.88
2022-11-26T09:12:02.654Z,1019.86
2022-11-26T09:13:02.568Z,1019.91
2022-11-26T09:14:02.826Z,1019.89
2022-11-26T09:15:02.394Z,1019.91
2022-11-26T09:16:02.550Z,1019.86
2022-11-26T09:17:02.679Z,1019.88
2022-11-26T09:18:02.558Z,1019.92
2022-11-26T09:19:03.056Z,1019.82
2022-11-26T09:20:03.108Z,1019.81
2022-11-26T09:21:02.862Z,1019.86
2022-11-26T09:22:01.948Z,1019.82
2022-11-26T09:23:02.094Z,1019.88
2022-11-26T09:24:02.217Z,1019.86
2022-11-26T09:25:02.104Z,1019.92
2022-11-26T09:26:02.109Z,1019.96
2022-11-26T09:27:07.507Z,1019.86
2022-11-26T09:28:02.733Z,1019.87
2022-11-26T09:29:02.584Z,1019.96
2022-11-26T09:30:02.952Z,1019.91
2022-11-26T09:31:03.154Z,1019.92
2022-11-26T09:32:22.568Z,1019.89
2022-11-26T09:33:02.245Z,1019.88
2022-11-26T09:34:02.406Z,1019.91
2022-11-26T09:35:02.592Z,1019.89
2022-11-26T09:36:02.193Z,1020.00
2022-11-26T09:37:02.834Z,1020.05
2022-11-26T09:38:02.883Z,1020.06
2022-11-26T09:39:02.846Z,1020.10
2022-11-26T09:40:02.784Z,1020.11
2022-11-26T09:41:03.031Z,1020.13
2022-11-26T09:42:02.051Z,1020.19
2022-11-26T09:43:02.318Z,1020.17
2022-11-26T09:44:02.283Z,1020.17
2022-11-26T09:45:02.213Z,1020.13
2022-11-26T09:46:02.201Z,1020.17
2022-11-26T09:47:11.896Z,1020.17
2022-11-26T09:48:01.986Z,1020.14
2022-11-26T09:49:04.273Z,1020.12
2022-11-26T09:50:02.072Z,1020.13
2022-11-26T09:51:02.004Z,1020.10
2022-11-26T09:52:02.495Z,1020.11
2022-11-26T09:53:02.498Z,1020.16
2022-11-26T09:54:02.461Z,1020.16
2022-11-26T09:55:02.865Z,1020.06
2022-11-26T09:56:02.877Z,1020.09
2022-11-26T09:57:02.033Z,1020.09
2022-11-26T09:58:02.244Z,1020.14
2022-11-26T09:59:02.111Z,1020.13
2022-11-26T10:00:02.120Z,1020.14
2022-11-26T10:01:02.081Z,1020.13
2022-11-26T10:02:02.386Z,1020.20
2022-11-26T10:03:02.149Z,1020.14
2022-11-26T10:04:02.327Z,1020.18
2022-11-26T10:05:02.595Z,1020.25
2022-11-26T10:06:02.216Z,1020.22
2022-11-26T10:07:02.517Z,1020.24
2022-11-26T10:08:02.606Z,1020.28
2022-11-26T10:09:02.473Z,1020.28
2022-11-26T10:10:02.500Z,1020.29
2022-11-26T10:11:04.206Z,1020.35
2022-11-26T10:12:02.629Z,1020.36
2022-11-26T10:13:18.631Z,1020.34
2022-11-26T10:14:02.967Z,1020.31
2022-11-26T10:15:02.813Z,1020.34
2022-11-26T10:16:02.730Z,1020.30
2022-11-26T10:17:02.286Z,1020.30
2022-11-26T10:18:02.027Z,1020.30
2022-11-26T10:19:02.033Z,1020.30
2022-11-26T10:20:02.446Z,1020.27
2022-11-26T10:21:02.446Z,1020.27
2022-11-26T10:22:02.478Z,1020.32
2022-11-26T10:23:02.222Z,1020.30
2022-11-26T10:24:02.404Z,1020.29
2022-11-26T10:25:02.588Z,1020.30
2022-11-26T10:26:02.583Z,1020.29
2022-11-26T10:27:03.017Z,1020.29
2022-11-26T10:28:02.982Z,1020.32
2022-11-26T10:29:03.093Z,1020.35
2022-11-26T10:30:02.797Z,1020.39
2022-11-26T10:31:02.826Z,1020.42
2022-11-26T10:32:02.671Z,1020.36
2022-11-26T10:33:02.487Z,1020.33
2022-11-26T10:34:02.520Z,1020.32
2022-11-26T10:35:02.450Z,1020.33
2022-11-26T10:36:02.447Z,1020.27
2022-11-26T10:37:03.169Z,1020.26
2022-11-26T10:38:02.868Z,1020.24
2022-11-26T10:39:02.987Z,1020.24
2022-11-26T10:40:07.079Z,1020.23
2022-11-26T10:41:02.895Z,1020.20
2022-11-26T10:42:02.509Z,1020.21
2022-11-26T10:43:02.424Z,1020.27
2022-11-26T10:44:02.404Z,1020.31
2022-11-26T10:45:02.444Z,1020.26
2022-11-26T10:46:02.503Z,1020.28
2022-11-26T10:47:02.745Z,1020.28
2022-11-26T10:48:02.672Z,1020.29
2022-11-26T10:49:02.442Z,1020.31
2022-11-26T10:50:14.410Z,1020.35
2022-11-26T10:51:02.371Z,1020.35
2022-11-26T10:52:02.898Z,1020.31
2022-11-26T10:53:02.454Z,1020.34
2022-11-26T10:54:02.944Z,1020.28
2022-11-26T10:55:02.497Z,1020.29
2022-11-26T10:56:02.610Z,1020.35
2022-11-26T10:57:02.551Z,1020.36
2022-11-26T10:58:02.257Z,1020.39
2022-11-26T10:59:02.317Z,1020.38
2022-11-26T11:00:01.967Z,1020.35
2022-11-26T11:01:02.495Z,1020.34
2022-11-26T11:02:03.022Z,1020.37
2022-11-26T11:03:02.754Z,1020.31
2022-11-26T11:04:09.994Z,1020.29
2022-11-26T11:05:02.688Z,1020.24
2022-11-26T11:06:02.664Z,1020.27
2022-11-26T11:07:05.204Z,1020.25
2022-11-26T11:08:01.987Z,1020.30
2022-11-26T11:09:01.840Z,1020.26
2022-11-26T11:10:02.331Z,1020.31
2022-11-26T11:11:01.857Z,1020.29
2022-11-26T11:12:02.406Z,1020.31
2022-11-26T11:13:02.018Z,1020.27
2022-11-26T11:14:01.765Z,1020.29
2022-11-26T11:15:02.366Z,1020.29
2022-11-26T11:16:02.124Z,1020.25
2022-11-26T11:17:02.794Z,1020.35
2022-11-26T11:18:02.447Z,1020.27
2022-11-26T11:19:02.587Z,1020.30
2022-11-26T11:20:02.349Z,1020.28
2022-11-26T11:21:02.375Z,1020.19
2022-11-26T11:22:01.695Z,1020.19
2022-11-26T11:23:01.843Z,1020.19
2022-11-26T11:24:08.535Z,1020.19
2022-11-26T11:25:02.109Z,1020.20
2022-11-26T11:26:02.185Z,1020.13
2022-11-26T11:27:02.015Z,1020.16
2022-11-26T11:28:02.242Z,1020.15
2022-11-26T11:29:02.194Z,1020.15
2022-11-26T11:30:02.363Z,1020.13
2022-11-26T11:31:02.560Z,1020.15
2022-11-26T11:32:02.455Z,1020.12
2022-11-26T11:33:02.730Z,1020.07
2022-11-26T11:34:02.623Z,1020.05
2022-11-26T11:35:02.559Z,1020.06
2022-11-26T11:36:02.444Z,1020.06
2022-11-26T11:37:02.741Z,1020.03
2022-11-26T11:38:02.056Z,1020.03
2022-11-26T11:39:01.957Z,1020.04
2022-11-26T11:40:01.949Z,1020.01
2022-11-26T11:41:01.942Z,1020.04
2022-11-26T11:42:02.030Z,1020.07
2022-11-26T11:43:02.787Z,1020.07
2022-11-26T11:44:02.765Z,1020.06
2022-11-26T11:45:02.283Z,1020.04
2022-11-26T11:46:02.763Z,1020.07
2022-11-26T11:47:02.686Z,1020.15
2022-11-26T11:48:02.408Z,1020.12
2022-11-26T11:49:02.358Z,1020.04
2022-11-26T11:50:02.021Z,1020.04
2022-11-26T11:51:01.915Z,1020.08
2022-11-26T11:52:02.310Z,1020.02
2022-11-26T11:53:02.346Z,1020.02
2022-11-26T11:54:02.240Z,1019.97
2022-11-26T11:55:02.231Z,1019.93
2022-11-26T11:56:02.995Z,1019.93
2022-11-26T11:57:02.293Z,1019.93
2022-11-26T11:58:01.665Z,1019.91
2022-11-26T11:59:02.088Z,1019.93
2022-11-26T12:00:02.209Z,1019.90
2022-11-26T12:01:01.660Z,1019.89
2022-11-26T12:02:01.944Z,1019.90
2022-11-26T12:03:02.988Z,1019.88
2022-11-26T12:04:03.633Z,1019.85
2022-11-26T12:05:02.661Z,1019.87